sensor_id;sensor_type;location;lat;lon;timestamp;temperature;humidity
4487;DHT22;2256;48.740;9.106;2023-11-19T00:00:27;8.00;99.90
4487;DHT22;2256;48.740;9.106;2023-11-19T00:02:54;8.10;99.90
4487;DHT22;2256;48.740;9.106;2023-11-19T00:05:20;8.10;99.90
4487;DHT22;2256;48.740;9.106;2023-11-19T00:07:47;8.10;99.90
4487;DHT22;2256;48.740;9.106;2023-11-19T00:10:15;8.20;99.90
4487;DHT22;2256;48.740;9.106;2023-11-19T00:12:46;8.20;99.90
4487;DHT22;2256;48.740;9.106;2023-11-19T00:15:15;8.20;99.90
4487;DHT22;2256;48.740;9.106;2023-11-19T00:17:45;8.20;99.90
4487;DHT22;2256;48.740;9.106;2023-11-19T00:20:13;8.20;99.90
4487;DHT22;2256;48.740;9.106;2023-11-19T00:22:40;8.20;99.90
4487;DHT22;2256;48.740;9.106;2023-11-19T00:25:08;8.20;99.90
4487;DHT22;2256;48.740;9.106;2023-11-19T00:27:35;8.30;99.90
4487;DHT22;2256;48.740;9.106;2023-11-19T00:30:03;8.30;99.90
4487;DHT22;2256;48.740;9.106;2023-11-19T00:32:32;8.40;99.90
4487;DHT22;2256;48.740;9.106;2023-11-19T00:34:58;8.40;99.90
4487;DHT22;2256;48.740;9.106;2023-11-19T00:37:25;8.40;99.90
4487;DHT22;2256;48.740;9.106;2023-11-19T00:39:52;8.40;99.90
4487;DHT22;2256;48.740;9.106;2023-11-19T00:42:19;8.40;99.90
4487;DHT22;2256;48.740;9.106;2023-11-19T00:44:46;8.40;99.90
4487;DHT22;2256;48.740;9.106;2023-11-19T00:47:12;8.40;99.90
4487;DHT22;2256;48.740;9.106;2023-11-19T00:49:40;8.40;99.90
4487;DHT22;2256;48.740;9.106;2023-11-19T00:52:11;8.50;99.90
4487;DHT22;2256;48.740;9.106;2023-11-19T00:54:40;8.50;99.90
4487;DHT22;2256;48.740;9.106;2023-11-19T00:57:07;8.50;99.90
4487;DHT22;2256;48.740;9.106;2023-11-19T00:59:33;8.60;99.90
4487;DHT22;2256;48.740;9.106;2023-11-19T01:02:00;8.70;99.90
4487;DHT22;2256;48.740;9.106;2023-11-19T01:04:28;8.70;99.90
4487;DHT22;2256;48.740;9.106;2023-11-19T01:06:57;8.70;99.90
4487;DHT22;2256;48.740;9.106;2023-11-19T01:09:23;8.70;99.90
4487;DHT22;2256;48.740;9.106;2023-11-19T01:11:52;8.80;99.90
4487;DHT22;2256;48.740;9.106;2023-11-19T01:14:20;8.80;99.90
4487;DHT22;2256;48.740;9.106;2023-11-19T01:16:46;8.90;99.90
4487;DHT22;2256;48.740;9.106;2023-11-19T01:19:14;8.90;99.90
4487;DHT22;2256;48.740;9.106;2023-11-19T01:21:41;8.90;99.90
4487;DHT22;2256;48.740;9.106;2023-11-19T01:24:10;8.90;99.90
4487;DHT22;2256;48.740;9.106;2023-11-19T01:26:38;9.00;99.90
4487;DHT22;2256;48.740;9.106;2023-11-19T01:29:10;9.00;99.90
4487;DHT22;2256;48.740;9.106;2023-11-19T01:31:39;9.00;99.90
4487;DHT22;2256;48.740;9.106;2023-11-19T01:34:06;9.00;99.90
4487;DHT22;2256;48.740;9.106;2023-11-19T01:36:32;9.10;99.90
4487;DHT22;2256;48.740;9.106;2023-11-19T01:38:59;9.10;99.90
4487;DHT22;2256;48.740;9.106;2023-11-19T01:41:28;9.20;99.90
4487;DHT22;2256;48.740;9.106;2023-11-19T01:43:55;9.20;99.90
4487;DHT22;2256;48.740;9.106;2023-11-19T01:46:22;9.20;99.90
4487;DHT22;2256;48.740;9.106;2023-11-19T01:48:49;9.30;99.90
4487;DHT22;2256;48.740;9.106;2023-11-19T01:51:16;9.30;99.90
4487;DHT22;2256;48.740;9.106;2023-11-19T01:53:44;9.40;99.90
4487;DHT22;2256;48.740;9.106;2023-11-19T01:56:14;9.40;99.90
4487;DHT22;2256;48.740;9.106;2023-11-19T01:58:43;9.40;99.90
4487;DHT22;2256;48.740;9.106;2023-11-19T02:01:11;9.40;99.90
4487;DHT22;2256;48.740;9.106;2023-11-19T02:03:38;9.40;99.90
4487;DHT22;2256;48.740;9.106;2023-11-19T02:06:06;9.50;99.90
4487;DHT22;2256;48.740;9.106;2023-11-19T02:08:35;9.50;99.90
4487;DHT22;2256;48.740;9.106;2023-11-19T02:11:02;9.50;99.90
4487;DHT22;2256;48.740;9.106;2023-11-19T02:13:30;9.50;99.90
4487;DHT22;2256;48.740;9.106;2023-11-19T02:15:58;9.50;99.90
4487;DHT22;2256;48.740;9.106;2023-11-19T02:18:26;9.50;99.90
4487;DHT22;2256;48.740;9.106;2023-11-19T02:20:53;9.50;99.90
4487;DHT22;2256;48.740;9.106;2023-11-19T02:23:21;9.50;99.90
4487;DHT22;2256;48.740;9.106;2023-11-19T02:25:56;9.60;99.90
4487;DHT22;2256;48.740;9.106;2023-11-19T02:28:26;9.50;99.90
4487;DHT22;2256;48.740;9.106;2023-11-19T02:30:52;9.50;99.90
4487;DHT22;2256;48.740;9.106;2023-11-19T02:33:19;9.50;99.90
4487;DHT22;2256;48.740;9.106;2023-11-19T02:35:46;9.50;99.90
4487;DHT22;2256;48.740;9.106;2023-11-19T02:38:15;9.60;99.90
4487;DHT22;2256;48.740;9.106;2023-11-19T02:40:42;9.60;99.90
4487;DHT22;2256;48.740;9.106;2023-11-19T02:43:09;9.60;99.90
4487;DHT22;2256;48.740;9.106;2023-11-19T02:45:37;9.60;99.90
4487;DHT22;2256;48.740;9.106;2023-11-19T02:48:04;9.70;99.90
4487;DHT22;2256;48.740;9.106;2023-11-19T02:50:32;9.60;99.90
4487;DHT22;2256;48.740;9.106;2023-11-19T02:52:59;9.60;99.90
4487;DHT22;2256;48.740;9.106;2023-11-19T02:55:26;9.70;99.90
4487;DHT22;2256;48.740;9.106;2023-11-19T02:57:56;9.70;99.90
4487;DHT22;2256;48.740;9.106;2023-11-19T03:00:24;9.70;99.90
4487;DHT22;2256;48.740;9.106;2023-11-19T03:02:59;9.70;99.90
4487;DHT22;2256;48.740;9.106;2023-11-19T03:05:31;9.70;99.90
4487;DHT22;2256;48.740;9.106;2023-11-19T03:07:58;9.70;99.90
4487;DHT22;2256;48.740;9.106;2023-11-19T03:10:24;9.60;99.90
4487;DHT22;2256;48.740;9.106;2023-11-19T03:12:51;9.70;99.90
4487;DHT22;2256;48.740;9.106;2023-11-19T03:15:18;9.70;99.90
4487;DHT22;2256;48.740;9.106;2023-11-19T03:17:46;9.80;99.90
4487;DHT22;2256;48.740;9.106;2023-11-19T03:20:15;9.80;99.90
4487;DHT22;2256;48.740;9.106;2023-11-19T03:22:42;9.80;99.90
4487;DHT22;2256;48.740;9.106;2023-11-19T03:25:09;9.90;99.90
4487;DHT22;2256;48.740;9.106;2023-11-19T03:27:36;9.90;99.90
4487;DHT22;2256;48.740;9.106;2023-11-19T03:30:05;9.90;99.90
4487;DHT22;2256;48.740;9.106;2023-11-19T03:32:32;10.00;99.90
4487;DHT22;2256;48.740;9.106;2023-11-19T03:35:00;9.90;99.90
4487;DHT22;2256;48.740;9.106;2023-11-19T03:37:30;9.90;99.90
4487;DHT22;2256;48.740;9.106;2023-11-19T03:39:58;9.90;99.90
4487;DHT22;2256;48.740;9.106;2023-11-19T03:42:25;9.80;99.90
4487;DHT22;2256;48.740;9.106;2023-11-19T03:44:52;9.80;99.90
4487;DHT22;2256;48.740;9.106;2023-11-19T03:47:19;9.80;99.90
4487;DHT22;2256;48.740;9.106;2023-11-19T03:49:48;9.90;99.90
4487;DHT22;2256;48.740;9.106;2023-11-19T03:52:15;10.00;99.90
4487;DHT22;2256;48.740;9.106;2023-11-19T03:54:43;10.00;99.90
4487;DHT22;2256;48.740;9.106;2023-11-19T03:57:11;10.00;99.90
4487;DHT22;2256;48.740;9.106;2023-11-19T03:59:38;10.00;99.90
4487;DHT22;2256;48.740;9.106;2023-11-19T04:02:05;10.10;99.90
4487;DHT22;2256;48.740;9.106;2023-11-19T04:04:32;10.00;99.90
4487;DHT22;2256;48.740;9.106;2023-11-19T04:06:59;10.00;99.90
4487;DHT22;2256;48.740;9.106;2023-11-19T04:09:26;10.00;99.90
4487;DHT22;2256;48.740;9.106;2023-11-19T04:11:54;9.90;99.90
4487;DHT22;2256;48.740;9.106;2023-11-19T04:14:21;9.90;99.90
4487;DHT22;2256;48.740;9.106;2023-11-19T04:16:47;10.00;99.90
4487;DHT22;2256;48.740;9.106;2023-11-19T04:19:14;10.10;99.90
4487;DHT22;2256;48.740;9.106;2023-11-19T04:21:41;10.10;99.90
4487;DHT22;2256;48.740;9.106;2023-11-19T04:24:08;10.10;99.90
4487;DHT22;2256;48.740;9.106;2023-11-19T04:26:40;10.20;99.90
4487;DHT22;2256;48.740;9.106;2023-11-19T04:29:08;10.20;99.90
4487;DHT22;2256;48.740;9.106;2023-11-19T04:31:36;10.20;99.90
4487;DHT22;2256;48.740;9.106;2023-11-19T04:34:03;10.20;99.90
4487;DHT22;2256;48.740;9.106;2023-11-19T04:36:30;10.20;99.90
4487;DHT22;2256;48.740;9.106;2023-11-19T04:38:57;10.20;99.90
4487;DHT22;2256;48.740;9.106;2023-11-19T04:41:25;10.20;99.90
4487;DHT22;2256;48.740;9.106;2023-11-19T04:43:53;10.20;99.90
4487;DHT22;2256;48.740;9.106;2023-11-19T04:46:21;10.30;99.90
4487;DHT22;2256;48.740;9.106;2023-11-19T04:48:49;10.40;99.90
4487;DHT22;2256;48.740;9.106;2023-11-19T04:51:15;10.30;99.90
4487;DHT22;2256;48.740;9.106;2023-11-19T04:53:42;10.30;99.90
4487;DHT22;2256;48.740;9.106;2023-11-19T04:56:10;10.30;99.90
4487;DHT22;2256;48.740;9.106;2023-11-19T04:58:37;10.30;99.90
4487;DHT22;2256;48.740;9.106;2023-11-19T05:01:04;10.40;99.90
4487;DHT22;2256;48.740;9.106;2023-11-19T05:03:32;10.30;99.90
4487;DHT22;2256;48.740;9.106;2023-11-19T05:05:59;10.30;99.90
4487;DHT22;2256;48.740;9.106;2023-11-19T05:08:26;10.30;99.90
4487;DHT22;2256;48.740;9.106;2023-11-19T05:10:53;10.40;99.90
4487;DHT22;2256;48.740;9.106;2023-11-19T05:13:20;10.50;99.90
4487;DHT22;2256;48.740;9.106;2023-11-19T05:15:47;10.50;99.90
4487;DHT22;2256;48.740;9.106;2023-11-19T05:18:14;10.50;99.90
4487;DHT22;2256;48.740;9.106;2023-11-19T05:20:42;10.40;99.90
4487;DHT22;2256;48.740;9.106;2023-11-19T05:23:09;10.50;99.90
4487;DHT22;2256;48.740;9.106;2023-11-19T05:25:37;10.50;99.90
4487;DHT22;2256;48.740;9.106;2023-11-19T05:28:03;10.50;99.90
4487;DHT22;2256;48.740;9.106;2023-11-19T05:30:30;10.50;99.90
4487;DHT22;2256;48.740;9.106;2023-11-19T05:32:57;10.50;99.90
4487;DHT22;2256;48.740;9.106;2023-11-19T05:35:24;10.60;99.90
4487;DHT22;2256;48.740;9.106;2023-11-19T05:37:52;10.60;99.90
4487;DHT22;2256;48.740;9.106;2023-11-19T05:40:19;10.60;99.90
4487;DHT22;2256;48.740;9.106;2023-11-19T05:42:46;10.60;99.90
4487;DHT22;2256;48.740;9.106;2023-11-19T05:45:13;10.60;99.90
4487;DHT22;2256;48.740;9.106;2023-11-19T05:47:39;10.60;99.90
4487;DHT22;2256;48.740;9.106;2023-11-19T05:50:07;10.60;99.90
4487;DHT22;2256;48.740;9.106;2023-11-19T05:52:34;10.70;99.90
4487;DHT22;2256;48.740;9.106;2023-11-19T05:55:03;10.60;99.90
4487;DHT22;2256;48.740;9.106;2023-11-19T05:57:35;10.70;99.90
4487;DHT22;2256;48.740;9.106;2023-11-19T06:00:02;10.80;99.90
4487;DHT22;2256;48.740;9.106;2023-11-19T06:02:32;10.70;99.90
4487;DHT22;2256;48.740;9.106;2023-11-19T06:04:59;10.80;99.90
4487;DHT22;2256;48.740;9.106;2023-11-19T06:07:26;10.80;99.90
4487;DHT22;2256;48.740;9.106;2023-11-19T06:09:53;10.80;99.90
4487;DHT22;2256;48.740;9.106;2023-11-19T06:12:21;10.80;99.90
4487;DHT22;2256;48.740;9.106;2023-11-19T06:14:48;10.80;99.90
4487;DHT22;2256;48.740;9.106;2023-11-19T06:17:14;10.80;99.90
4487;DHT22;2256;48.740;9.106;2023-11-19T06:19:41;10.80;99.90
4487;DHT22;2256;48.740;9.106;2023-11-19T06:22:08;10.80;99.90
4487;DHT22;2256;48.740;9.106;2023-11-19T06:24:35;10.70;99.90
4487;DHT22;2256;48.740;9.106;2023-11-19T06:27:02;10.80;99.90
4487;DHT22;2256;48.740;9.106;2023-11-19T06:29:31;10.80;99.90
4487;DHT22;2256;48.740;9.106;2023-11-19T06:31:58;10.80;99.90
4487;DHT22;2256;48.740;9.106;2023-11-19T06:34:24;10.80;99.90
4487;DHT22;2256;48.740;9.106;2023-11-19T06:36:51;10.80;99.90
4487;DHT22;2256;48.740;9.106;2023-11-19T06:39:18;10.80;99.90
4487;DHT22;2256;48.740;9.106;2023-11-19T06:41:45;10.80;99.90
4487;DHT22;2256;48.740;9.106;2023-11-19T06:44:12;10.80;99.90
4487;DHT22;2256;48.740;9.106;2023-11-19T06:46:40;10.80;99.90
4487;DHT22;2256;48.740;9.106;2023-11-19T06:49:07;10.80;99.90
4487;DHT22;2256;48.740;9.106;2023-11-19T06:51:34;10.80;99.90
4487;DHT22;2256;48.740;9.106;2023-11-19T06:54:01;10.80;99.90
4487;DHT22;2256;48.740;9.106;2023-11-19T06:56:27;10.80;99.90
4487;DHT22;2256;48.740;9.106;2023-11-19T06:58:54;10.90;99.90
4487;DHT22;2256;48.740;9.106;2023-11-19T07:01:21;10.90;99.90
4487;DHT22;2256;48.740;9.106;2023-11-19T07:03:49;10.90;99.90
4487;DHT22;2256;48.740;9.106;2023-11-19T07:06:16;10.90;99.90
4487;DHT22;2256;48.740;9.106;2023-11-19T07:08:43;10.90;99.90
4487;DHT22;2256;48.740;9.106;2023-11-19T07:11:11;10.90;99.90
4487;DHT22;2256;48.740;9.106;2023-11-19T07:13:39;10.90;99.90
4487;DHT22;2256;48.740;9.106;2023-11-19T07:16:07;11.10;99.90
4487;DHT22;2256;48.740;9.106;2023-11-19T07:18:35;11.40;99.90
4487;DHT22;2256;48.740;9.106;2023-11-19T07:21:04;11.60;99.90
4487;DHT22;2256;48.740;9.106;2023-11-19T07:23:31;11.90;99.90
4487;DHT22;2256;48.740;9.106;2023-11-19T07:25:58;11.90;99.90
4487;DHT22;2256;48.740;9.106;2023-11-19T07:28:25;12.00;99.90
4487;DHT22;2256;48.740;9.106;2023-11-19T07:30:54;12.00;99.90
4487;DHT22;2256;48.740;9.106;2023-11-19T07:33:22;11.80;99.90
4487;DHT22;2256;48.740;9.106;2023-11-19T07:35:49;11.80;99.90
4487;DHT22;2256;48.740;9.106;2023-11-19T07:38:17;11.80;99.90
4487;DHT22;2256;48.740;9.106;2023-11-19T07:40:44;11.80;99.90
4487;DHT22;2256;48.740;9.106;2023-11-19T07:43:11;11.80;99.90
4487;DHT22;2256;48.740;9.106;2023-11-19T07:45:38;11.80;99.90
4487;DHT22;2256;48.740;9.106;2023-11-19T07:48:05;11.80;99.90
4487;DHT22;2256;48.740;9.106;2023-11-19T07:50:32;11.80;99.90
4487;DHT22;2256;48.740;9.106;2023-11-19T07:52:59;11.80;99.90
4487;DHT22;2256;48.740;9.106;2023-11-19T07:55:27;11.70;99.90
4487;DHT22;2256;48.740;9.106;2023-11-19T07:57:54;11.70;99.90
4487;DHT22;2256;48.740;9.106;2023-11-19T08:00:21;11.70;99.90
4487;DHT22;2256;48.740;9.106;2023-11-19T08:02:48;11.70;99.90
4487;DHT22;2256;48.740;9.106;2023-11-19T08:05:14;11.70;99.90
4487;DHT22;2256;48.740;9.106;2023-11-19T08:07:41;11.70;99.90
4487;DHT22;2256;48.740;9.106;2023-11-19T08:10:08;11.80;99.90
4487;DHT22;2256;48.740;9.106;2023-11-19T08:12:38;11.90;99.90
4487;DHT22;2256;48.740;9.106;2023-11-19T08:15:05;11.90;99.90
4487;DHT22;2256;48.740;9.106;2023-11-19T08:17:32;12.00;99.90
4487;DHT22;2256;48.740;9.106;2023-11-19T08:19:59;12.10;99.90
4487;DHT22;2256;48.740;9.106;2023-11-19T08:22:26;12.20;99.90
4487;DHT22;2256;48.740;9.106;2023-11-19T08:24:53;12.30;99.90
4487;DHT22;2256;48.740;9.106;2023-11-19T08:27:20;12.40;99.90
4487;DHT22;2256;48.740;9.106;2023-11-19T08:29:54;12.60;99.90
4487;DHT22;2256;48.740;9.106;2023-11-19T08:32:22;12.70;99.90
4487;DHT22;2256;48.740;9.106;2023-11-19T08:34:49;12.90;99.90
4487;DHT22;2256;48.740;9.106;2023-11-19T08:37:16;13.60;99.90
4487;DHT22;2256;48.740;9.106;2023-11-19T08:39:43;15.70;99.90
4487;DHT22;2256;48.740;9.106;2023-11-19T08:42:10;17.40;99.90
4487;DHT22;2256;48.740;9.106;2023-11-19T08:44:37;16.90;99.90
4487;DHT22;2256;48.740;9.106;2023-11-19T08:47:05;16.00;99.90
4487;DHT22;2256;48.740;9.106;2023-11-19T08:49:32;15.20;99.90
4487;DHT22;2256;48.740;9.106;2023-11-19T08:51:59;14.50;99.90
4487;DHT22;2256;48.740;9.106;2023-11-19T08:54:26;14.10;99.90
4487;DHT22;2256;48.740;9.106;2023-11-19T08:56:52;13.70;99.90
4487;DHT22;2256;48.740;9.106;2023-11-19T08:59:19;13.50;99.90
4487;DHT22;2256;48.740;9.106;2023-11-19T09:01:46;13.60;99.90
4487;DHT22;2256;48.740;9.106;2023-11-19T09:04:14;13.90;99.90
4487;DHT22;2256;48.740;9.106;2023-11-19T09:06:41;14.30;99.90
4487;DHT22;2256;48.740;9.106;2023-11-19T09:09:09;14.80;99.90
4487;DHT22;2256;48.740;9.106;2023-11-19T09:11:36;15.00;99.90
4487;DHT22;2256;48.740;9.106;2023-11-19T09:14:03;14.80;99.90
4487;DHT22;2256;48.740;9.106;2023-11-19T09:16:31;14.40;99.90
4487;DHT22;2256;48.740;9.106;2023-11-19T09:18:57;14.10;99.90
4487;DHT22;2256;48.740;9.106;2023-11-19T09:21:26;13.90;99.90
4487;DHT22;2256;48.740;9.106;2023-11-19T09:23:53;13.70;99.90
4487;DHT22;2256;48.740;9.106;2023-11-19T09:26:20;13.80;99.90
4487;DHT22;2256;48.740;9.106;2023-11-19T09:28:47;13.60;99.90
4487;DHT22;2256;48.740;9.106;2023-11-19T09:31:14;13.70;99.90
4487;DHT22;2256;48.740;9.106;2023-11-19T09:33:40;14.00;99.90
4487;DHT22;2256;48.740;9.106;2023-11-19T09:36:08;14.20;99.90
4487;DHT22;2256;48.740;9.106;2023-11-19T09:38:37;14.10;99.90
4487;DHT22;2256;48.740;9.106;2023-11-19T09:41:05;14.20;99.90
4487;DHT22;2256;48.740;9.106;2023-11-19T09:43:34;14.30;99.90
4487;DHT22;2256;48.740;9.106;2023-11-19T09:46:04;14.40;99.90
4487;DHT22;2256;48.740;9.106;2023-11-19T09:48:32;14.50;99.90
4487;DHT22;2256;48.740;9.106;2023-11-19T09:51:00;14.60;99.90
4487;DHT22;2256;48.740;9.106;2023-11-19T09:53:27;14.70;99.90
4487;DHT22;2256;48.740;9.106;2023-11-19T09:55:55;14.70;99.90
4487;DHT22;2256;48.740;9.106;2023-11-19T09:58:22;14.90;99.90
4487;DHT22;2256;48.740;9.106;2023-11-19T10:00:50;15.00;99.90
4487;DHT22;2256;48.740;9.106;2023-11-19T10:03:18;15.10;99.90
4487;DHT22;2256;48.740;9.106;2023-11-19T10:05:45;15.10;99.90
4487;DHT22;2256;48.740;9.106;2023-11-19T10:08:12;15.10;99.90
4487;DHT22;2256;48.740;9.106;2023-11-19T10:10:39;15.20;99.90
4487;DHT22;2256;48.740;9.106;2023-11-19T10:13:07;15.10;99.90
4487;DHT22;2256;48.740;9.106;2023-11-19T10:15:36;15.20;99.90
4487;DHT22;2256;48.740;9.106;2023-11-19T10:18:03;15.20;99.90
4487;DHT22;2256;48.740;9.106;2023-11-19T10:20:35;15.30;99.90
4487;DHT22;2256;48.740;9.106;2023-11-19T10:23:02;15.50;99.90
4487;DHT22;2256;48.740;9.106;2023-11-19T10:25:29;15.50;99.90
4487;DHT22;2256;48.740;9.106;2023-11-19T10:27:57;15.60;99.90
4487;DHT22;2256;48.740;9.106;2023-11-19T10:30:27;15.90;99.90
4487;DHT22;2256;48.740;9.106;2023-11-19T10:33:03;15.80;99.90
4487;DHT22;2256;48.740;9.106;2023-11-19T10:35:31;15.80;99.90
4487;DHT22;2256;48.740;9.106;2023-11-19T10:37:59;15.80;99.90
4487;DHT22;2256;48.740;9.106;2023-11-19T10:40:37;15.80;99.90
4487;DHT22;2256;48.740;9.106;2023-11-19T10:43:05;15.70;99.90
4487;DHT22;2256;48.740;9.106;2023-11-19T10:45:34;15.60;99.90
4487;DHT22;2256;48.740;9.106;2023-11-19T10:48:02;15.80;99.90
4487;DHT22;2256;48.740;9.106;2023-11-19T10:50:32;15.80;99.90
4487;DHT22;2256;48.740;9.106;2023-11-19T10:53:00;15.80;99.90
4487;DHT22;2256;48.740;9.106;2023-11-19T10:55:27;15.70;99.90
4487;DHT22;2256;48.740;9.106;2023-11-19T10:58:00;15.90;99.90
4487;DHT22;2256;48.740;9.106;2023-11-19T11:00:29;16.00;99.90
4487;DHT22;2256;48.740;9.106;2023-11-19T11:03:02;16.20;99.90
4487;DHT22;2256;48.740;9.106;2023-11-19T11:05:32;16.50;99.90
4487;DHT22;2256;48.740;9.106;2023-11-19T11:08:00;16.60;99.90
4487;DHT22;2256;48.740;9.106;2023-11-19T11:10:28;16.50;99.90
4487;DHT22;2256;48.740;9.106;2023-11-19T11:12:59;16.40;99.90
4487;DHT22;2256;48.740;9.106;2023-11-19T11:15:30;16.20;99.90
4487;DHT22;2256;48.740;9.106;2023-11-19T11:18:01;16.10;99.90
4487;DHT22;2256;48.740;9.106;2023-11-19T11:20:29;16.00;99.90
4487;DHT22;2256;48.740;9.106;2023-11-19T11:25:57;16.20;99.90
4487;DHT22;2256;48.740;9.106;2023-11-19T11:28:34;16.30;99.90
4487;DHT22;2256;48.740;9.106;2023-11-19T11:31:25;16.30;99.90
4487;DHT22;2256;48.740;9.106;2023-11-19T11:34:24;16.20;99.90
4487;DHT22;2256;48.740;9.106;2023-11-19T11:37:01;15.70;99.90
4487;DHT22;2256;48.740;9.106;2023-11-19T11:39:30;15.50;99.90
4487;DHT22;2256;48.740;9.106;2023-11-19T11:42:30;15.30;99.90
4487;DHT22;2256;48.740;9.106;2023-11-19T11:45:01;15.30;99.90
4487;DHT22;2256;48.740;9.106;2023-11-19T11:48:06;15.30;99.90
4487;DHT22;2256;48.740;9.106;2023-11-19T11:50:36;15.50;99.90
4487;DHT22;2256;48.740;9.106;2023-11-19T11:53:15;15.60;99.90
4487;DHT22;2256;48.740;9.106;2023-11-19T11:55:59;15.70;99.90
4487;DHT22;2256;48.740;9.106;2023-11-19T11:58:31;15.70;99.90
4487;DHT22;2256;48.740;9.106;2023-11-19T12:01:00;15.70;99.90
4487;DHT22;2256;48.740;9.106;2023-11-19T12:03:28;15.80;99.90
4487;DHT22;2256;48.740;9.106;2023-11-19T12:05:57;15.90;99.90
4487;DHT22;2256;48.740;9.106;2023-11-19T12:08:26;15.80;99.90
4487;DHT22;2256;48.740;9.106;2023-11-19T12:10:54;15.80;99.90
4487;DHT22;2256;48.740;9.106;2023-11-19T12:13:24;15.60;99.90
4487;DHT22;2256;48.740;9.106;2023-11-19T12:16:10;15.40;99.90
4487;DHT22;2256;48.740;9.106;2023-11-19T12:18:39;15.20;99.90
4487;DHT22;2256;48.740;9.106;2023-11-19T12:21:08;15.10;99.90
4487;DHT22;2256;48.740;9.106;2023-11-19T12:23:44;15.30;99.90
4487;DHT22;2256;48.740;9.106;2023-11-19T12:26:30;15.30;99.90
4487;DHT22;2256;48.740;9.106;2023-11-19T12:28:58;15.30;99.90
4487;DHT22;2256;48.740;9.106;2023-11-19T12:31:24;15.40;99.90
4487;DHT22;2256;48.740;9.106;2023-11-19T12:33:51;15.40;99.90
4487;DHT22;2256;48.740;9.106;2023-11-19T12:36:20;15.40;99.90
4487;DHT22;2256;48.740;9.106;2023-11-19T12:38:47;15.30;99.90
4487;DHT22;2256;48.740;9.106;2023-11-19T12:41:14;15.40;99.90
4487;DHT22;2256;48.740;9.106;2023-11-19T12:43:43;15.30;99.90
4487;DHT22;2256;48.740;9.106;2023-11-19T12:46:20;15.40;99.90
4487;DHT22;2256;48.740;9.106;2023-11-19T12:48:47;15.50;99.90
4487;DHT22;2256;48.740;9.106;2023-11-19T12:51:14;15.50;99.90
4487;DHT22;2256;48.740;9.106;2023-11-19T12:53:49;15.60;99.90
4487;DHT22;2256;48.740;9.106;2023-11-19T12:56:19;15.50;99.90
4487;DHT22;2256;48.740;9.106;2023-11-19T12:58:46;15.50;99.90
4487;DHT22;2256;48.740;9.106;2023-11-19T13:01:17;15.40;99.90
4487;DHT22;2256;48.740;9.106;2023-11-19T13:03:45;15.30;99.90
4487;DHT22;2256;48.740;9.106;2023-11-19T13:06:13;15.30;99.90
4487;DHT22;2256;48.740;9.106;2023-11-19T13:08:42;15.30;99.90
4487;DHT22;2256;48.740;9.106;2023-11-19T13:11:11;15.20;99.90
4487;DHT22;2256;48.740;9.106;2023-11-19T13:13:55;15.10;99.90
4487;DHT22;2256;48.740;9.106;2023-11-19T13:16:22;15.00;99.90
4487;DHT22;2256;48.740;9.106;2023-11-19T13:18:49;14.90;99.90
4487;DHT22;2256;48.740;9.106;2023-11-19T13:21:17;14.90;99.90
4487;DHT22;2256;48.740;9.106;2023-11-19T13:23:44;14.70;99.90
4487;DHT22;2256;48.740;9.106;2023-11-19T13:26:12;14.70;99.90
4487;DHT22;2256;48.740;9.106;2023-11-19T13:28:39;14.80;99.90
4487;DHT22;2256;48.740;9.106;2023-11-19T13:31:06;14.80;99.90
4487;DHT22;2256;48.740;9.106;2023-11-19T13:33:33;14.70;99.90
4487;DHT22;2256;48.740;9.106;2023-11-19T13:36:01;14.60;99.90
4487;DHT22;2256;48.740;9.106;2023-11-19T13:38:31;14.50;99.90
4487;DHT22;2256;48.740;9.106;2023-11-19T13:40:58;14.40;99.90
4487;DHT22;2256;48.740;9.106;2023-11-19T13:43:26;14.40;99.90
4487;DHT22;2256;48.740;9.106;2023-11-19T13:45:54;14.30;99.90
4487;DHT22;2256;48.740;9.106;2023-11-19T13:48:21;14.20;99.90
4487;DHT22;2256;48.740;9.106;2023-11-19T13:50:48;14.20;99.90
4487;DHT22;2256;48.740;9.106;2023-11-19T13:53:14;14.10;99.90
4487;DHT22;2256;48.740;9.106;2023-11-19T13:55:42;14.20;99.90
4487;DHT22;2256;48.740;9.106;2023-11-19T13:58:09;14.20;99.90
4487;DHT22;2256;48.740;9.106;2023-11-19T14:00:37;14.20;99.90
4487;DHT22;2256;48.740;9.106;2023-11-19T14:03:04;14.20;99.90
4487;DHT22;2256;48.740;9.106;2023-11-19T14:05:31;14.20;99.90
4487;DHT22;2256;48.740;9.106;2023-11-19T14:07:58;14.10;99.90
4487;DHT22;2256;48.740;9.106;2023-11-19T14:10:26;14.00;99.90
4487;DHT22;2256;48.740;9.106;2023-11-19T14:12:54;14.00;99.90
4487;DHT22;2256;48.740;9.106;2023-11-19T14:15:21;14.10;99.90
4487;DHT22;2256;48.740;9.106;2023-11-19T14:17:49;14.10;99.90
4487;DHT22;2256;48.740;9.106;2023-11-19T14:20:16;14.20;99.90
4487;DHT22;2256;48.740;9.106;2023-11-19T14:22:43;14.40;99.90
4487;DHT22;2256;48.740;9.106;2023-11-19T14:25:12;14.40;99.90
4487;DHT22;2256;48.740;9.106;2023-11-19T14:27:39;14.40;99.90
4487;DHT22;2256;48.740;9.106;2023-11-19T14:30:08;14.40;99.90
4487;DHT22;2256;48.740;9.106;2023-11-19T14:32:36;14.30;99.90
4487;DHT22;2256;48.740;9.106;2023-11-19T14:35:06;14.20;99.90
4487;DHT22;2256;48.740;9.106;2023-11-19T14:37:33;14.20;99.90
4487;DHT22;2256;48.740;9.106;2023-11-19T14:40:00;14.10;99.90
4487;DHT22;2256;48.740;9.106;2023-11-19T14:42:29;14.00;99.90
4487;DHT22;2256;48.740;9.106;2023-11-19T14:44:56;14.10;99.90
4487;DHT22;2256;48.740;9.106;2023-11-19T14:47:23;14.10;99.90
4487;DHT22;2256;48.740;9.106;2023-11-19T14:49:50;14.10;99.90
4487;DHT22;2256;48.740;9.106;2023-11-19T14:52:18;14.00;99.90
4487;DHT22;2256;48.740;9.106;2023-11-19T14:54:45;13.90;99.90
4487;DHT22;2256;48.740;9.106;2023-11-19T14:57:12;13.80;99.90
4487;DHT22;2256;48.740;9.106;2023-11-19T14:59:39;13.70;99.90
4487;DHT22;2256;48.740;9.106;2023-11-19T15:02:06;13.60;99.90
4487;DHT22;2256;48.740;9.106;2023-11-19T15:04:33;13.50;99.90
4487;DHT22;2256;48.740;9.106;2023-11-19T15:07:00;13.40;99.90
4487;DHT22;2256;48.740;9.106;2023-11-19T15:09:29;13.40;99.90
4487;DHT22;2256;48.740;9.106;2023-11-19T15:11:56;13.30;99.90
4487;DHT22;2256;48.740;9.106;2023-11-19T15:14:23;13.20;99.90
4487;DHT22;2256;48.740;9.106;2023-11-19T15:16:50;13.10;99.90
4487;DHT22;2256;48.740;9.106;2023-11-19T15:19:17;13.10;99.90
4487;DHT22;2256;48.740;9.106;2023-11-19T15:21:45;13.00;99.90
4487;DHT22;2256;48.740;9.106;2023-11-19T15:24:12;12.80;99.90
4487;DHT22;2256;48.740;9.106;2023-11-19T15:26:40;12.70;99.90
4487;DHT22;2256;48.740;9.106;2023-11-19T15:29:07;12.70;99.90
4487;DHT22;2256;48.740;9.106;2023-11-19T15:31:34;12.60;99.90
4487;DHT22;2256;48.740;9.106;2023-11-19T15:34:01;12.60;99.90
4487;DHT22;2256;48.740;9.106;2023-11-19T15:36:28;12.50;99.90
4487;DHT22;2256;48.740;9.106;2023-11-19T15:38:55;12.50;99.90
4487;DHT22;2256;48.740;9.106;2023-11-19T15:41:22;12.30;99.90
4487;DHT22;2256;48.740;9.106;2023-11-19T15:43:50;12.30;99.90
4487;DHT22;2256;48.740;9.106;2023-11-19T15:46:17;12.20;99.90
4487;DHT22;2256;48.740;9.106;2023-11-19T15:48:44;12.20;99.90
4487;DHT22;2256;48.740;9.106;2023-11-19T15:51:11;12.20;99.90
4487;DHT22;2256;48.740;9.106;2023-11-19T15:53:38;12.00;99.90
4487;DHT22;2256;48.740;9.106;2023-11-19T15:56:05;12.00;99.90
4487;DHT22;2256;48.740;9.106;2023-11-19T15:58:32;12.10;99.90
4487;DHT22;2256;48.740;9.106;2023-11-19T16:01:00;12.00;99.90
4487;DHT22;2256;48.740;9.106;2023-11-19T16:03:27;11.90;99.90
4487;DHT22;2256;48.740;9.106;2023-11-19T16:05:55;11.90;99.90
4487;DHT22;2256;48.740;9.106;2023-11-19T16:08:22;11.80;99.90
4487;DHT22;2256;48.740;9.106;2023-11-19T16:10:49;11.90;99.90
4487;DHT22;2256;48.740;9.106;2023-11-19T16:13:15;11.80;99.90